Anette — A8WY8 — position and weather

sailwx.info

Track history (hours):
 
Tides and Currents Weather Stations Pressure Air Temp Water Temp Dewpoint Dewpoint Depression Visibility Wind Speed Wind Dir Waves Ship Positions

Anette

Last reported at 2014-Dec-22 22:33 UTC. Time now 2014-Dec-23 00:54 UTC.
Position N 46°30' W 072°14'.

Length 180 m; draft 7.6 m.

Type: Cargo ship. MMSI: 636092099.

Date/timePositionNaut miles runAvg speedWind from/ knotsBaromVisibWave heightAir tempDewpointWater temp
2014-Dec-22 22:33N 46°30' W 072°14'1514.6
2014-Dec-22 21:33N 46°21' W 072°30'2 2.3
2014-Dec-22 20:30N 46°20' W 072°33'0 0.0
2014-Dec-22 19:30N 46°20' W 072°33'0 0.0
2014-Dec-22 18:30N 46°20' W 072°33'0 0.0
2014-Dec-22 17:30N 46°20' W 072°33'0 0.0
2014-Dec-22 16:30N 46°20' W 072°33'0 0.0
2014-Dec-22 15:30N 46°20' W 072°33'0 0.0
2014-Dec-22 14:30N 46°20' W 072°33'0 0.0
2014-Dec-22 13:30N 46°20' W 072°33'0 0.0
2014-Dec-22 12:30N 46°20' W 072°33'0 0.0
2014-Dec-22 11:30N 46°20' W 072°33'0 0.0
2014-Dec-22 10:30N 46°20' W 072°33'0 0.0
2014-Dec-22 09:30N 46°20' W 072°33'0 0.0
2014-Dec-22 08:30N 46°20' W 072°33'0 0.0
2014-Dec-22 07:30N 46°20' W 072°33'0 0.0
2014-Dec-22 06:30N 46°20' W 072°33'0 0.0
2014-Dec-22 05:30N 46°20' W 072°33'0 0.0
2014-Dec-22 04:30N 46°20' W 072°33'0 0.0
2014-Dec-22 03:30N 46°20' W 072°33'0 0.0
2014-Dec-22 02:30N 46°20' W 072°33'0 0.0
2014-Dec-22 01:30N 46°20' W 072°33'0 0.0
2014-Dec-22 00:30N 46°20' W 072°33'0 0.0
2014-Dec-21 23:30N 46°20' W 072°33'0 0.0
2014-Dec-21 22:30N 46°20' W 072°33'0 0.0
2014-Dec-21 21:30N 46°20' W 072°33'0 0.0
2014-Dec-21 20:24N 46°20' W 072°33'0 0.0
2014-Dec-21 19:30N 46°20' W 072°33'0 0.0
2014-Dec-21 18:30N 46°20' W 072°33'0 0.0
2014-Dec-21 17:24N 46°20' W 072°33'0 0.0
2014-Dec-21 16:30N 46°20' W 072°33'0 0.0
2014-Dec-21 15:30N 46°20' W 072°33'0 0.0
2014-Dec-21 14:30N 46°20' W 072°33'0 0.0
2014-Dec-21 13:30N 46°20' W 072°33'0 0.0
2014-Dec-21 12:30N 46°20' W 072°33'0 0.0
2014-Dec-21 11:30N 46°20' W 072°33'0 0.0
2014-Dec-21 10:30N 46°20' W 072°33'0 0.0
2014-Dec-21 09:30N 46°20' W 072°33'0 0.0
2014-Dec-21 08:30N 46°20' W 072°33'0 0.0
2014-Dec-21 07:30N 46°20' W 072°33'0 0.0
2014-Dec-21 06:30N 46°20' W 072°33'0 0.0
2014-Dec-21 05:30N 46°20' W 072°33'0 0.0
2014-Dec-21 04:30N 46°20' W 072°33'0 0.0
2014-Dec-21 03:30N 46°20' W 072°33'0 0.0
2014-Dec-21 02:30N 46°20' W 072°33'0 0.0
2014-Dec-21 01:30N 46°20' W 072°33'0 0.0
2014-Dec-21 00:30N 46°20' W 072°33'0 0.0
2014-Dec-20 23:30N 46°20' W 072°33'0 0.0
2014-Dec-20 22:30N 46°20' W 072°33'0 0.0
2014-Dec-20 21:30N 46°20' W 072°33'0 0.0
2014-Dec-20 20:30N 46°20' W 072°33'0 0.0
2014-Dec-20 19:30N 46°20' W 072°33'0 0.0
2014-Dec-20 18:30N 46°20' W 072°33'0 0.0
2014-Dec-20 17:30N 46°20' W 072°33'0 0.0
2014-Dec-20 16:30N 46°20' W 072°33'0 0.0
2014-Dec-20 15:30N 46°20' W 072°33'0 0.0
2014-Dec-20 14:30N 46°20' W 072°33'0 0.0
2014-Dec-20 13:24N 46°20' W 072°33'0 0.0
2014-Dec-20 12:30N 46°20' W 072°33'0 0.0
2014-Dec-20 11:30N 46°20' W 072°33'0 0.0
2014-Dec-20 10:30N 46°20' W 072°33'0 0.0
2014-Dec-20 09:30N 46°20' W 072°33'0 0.0
2014-Dec-20 08:30N 46°20' W 072°33'0 0.0
2014-Dec-20 07:30N 46°20' W 072°33'0 0.0
2014-Dec-20 06:24N 46°20' W 072°33'0 0.0
2014-Dec-20 05:30N 46°20' W 072°33'0 0.0
2014-Dec-20 04:30N 46°20' W 072°33'0 0.0
2014-Dec-20 03:30N 46°20' W 072°33'0 0.0
2014-Dec-20 02:30N 46°20' W 072°33'0 0.1
2014-Dec-20 01:33N 46°20' W 072°33'6 5.5
2014-Dec-20 00:33N 46°23' W 072°26'1211.8
2014-Dec-19 23:33N 46°31' W 072°13'  
2014-Dec-16 02:32N 43°32' W 070°05'9 0.8
2014-Dec-15 15:27N 43°39' W 070°13'0 0.1
2014-Dec-15 14:30N 43°39' W 070°13'0 0.0
2014-Dec-15 13:18N 43°39' W 070°13'0 0.0
2014-Dec-15 12:30N 43°39' W 070°13'0 0.3
2014-Dec-15 11:34N 43°39' W 070°13'8 8.1
2014-Dec-15 10:33N 43°37' W 070°02'  
Track history (hours):
 
Tides and Currents Weather Stations Pressure Air Temp Water Temp Dewpoint Dewpoint Depression Visibility Wind Speed Wind Dir Waves Ship Positions

Anette

Last reported at 2014-Dec-22 22:33 UTC. Time now 2014-Dec-23 00:54 UTC.
Position N 46°30' W 072°14'.

Length 180 m; draft 7.6 m.

Type: Cargo ship. MMSI: 636092099.

Date/timePositionNaut miles runAvg speedWind from/ knotsBaromVisibWave heightAir tempDewpointWater temp
2014-Dec-22 22:33N 46°30' W 072°14'1514.6
2014-Dec-22 21:33N 46°21' W 072°30'2 2.3
2014-Dec-22 20:30N 46°20' W 072°33'0 0.0
2014-Dec-22 19:30N 46°20' W 072°33'0 0.0
2014-Dec-22 18:30N 46°20' W 072°33'0 0.0
2014-Dec-22 17:30N 46°20' W 072°33'0 0.0
2014-Dec-22 16:30N 46°20' W 072°33'0 0.0
2014-Dec-22 15:30N 46°20' W 072°33'0 0.0
2014-Dec-22 14:30N 46°20' W 072°33'0 0.0
2014-Dec-22 13:30N 46°20' W 072°33'0 0.0
2014-Dec-22 12:30N 46°20' W 072°33'0 0.0
2014-Dec-22 11:30N 46°20' W 072°33'0 0.0
2014-Dec-22 10:30N 46°20' W 072°33'0 0.0
2014-Dec-22 09:30N 46°20' W 072°33'0 0.0
2014-Dec-22 08:30N 46°20' W 072°33'0 0.0
2014-Dec-22 07:30N 46°20' W 072°33'0 0.0
2014-Dec-22 06:30N 46°20' W 072°33'0 0.0
2014-Dec-22 05:30N 46°20' W 072°33'0 0.0
2014-Dec-22 04:30N 46°20' W 072°33'0 0.0
2014-Dec-22 03:30N 46°20' W 072°33'0 0.0
2014-Dec-22 02:30N 46°20' W 072°33'0 0.0
2014-Dec-22 01:30N 46°20' W 072°33'0 0.0
2014-Dec-22 00:30N 46°20' W 072°33'0 0.0
2014-Dec-21 23:30N 46°20' W 072°33'0 0.0
2014-Dec-21 22:30N 46°20' W 072°33'0 0.0
2014-Dec-21 21:30N 46°20' W 072°33'0 0.0
2014-Dec-21 20:24N 46°20' W 072°33'0 0.0
2014-Dec-21 19:30N 46°20' W 072°33'0 0.0
2014-Dec-21 18:30N 46°20' W 072°33'0 0.0
2014-Dec-21 17:24N 46°20' W 072°33'0 0.0
2014-Dec-21 16:30N 46°20' W 072°33'0 0.0
2014-Dec-21 15:30N 46°20' W 072°33'0 0.0
2014-Dec-21 14:30N 46°20' W 072°33'0 0.0
2014-Dec-21 13:30N 46°20' W 072°33'0 0.0
2014-Dec-21 12:30N 46°20' W 072°33'0 0.0
2014-Dec-21 11:30N 46°20' W 072°33'0 0.0
2014-Dec-21 10:30N 46°20' W 072°33'0 0.0
2014-Dec-21 09:30N 46°20' W 072°33'0 0.0
2014-Dec-21 08:30N 46°20' W 072°33'0 0.0
2014-Dec-21 07:30N 46°20' W 072°33'0 0.0
2014-Dec-21 06:30N 46°20' W 072°33'0 0.0
2014-Dec-21 05:30N 46°20' W 072°33'0 0.0
2014-Dec-21 04:30N 46°20' W 072°33'0 0.0
2014-Dec-21 03:30N 46°20' W 072°33'0 0.0
2014-Dec-21 02:30N 46°20' W 072°33'0 0.0
2014-Dec-21 01:30N 46°20' W 072°33'0 0.0
2014-Dec-21 00:30N 46°20' W 072°33'0 0.0
2014-Dec-20 23:30N 46°20' W 072°33'0 0.0
2014-Dec-20 22:30N 46°20' W 072°33'0 0.0
2014-Dec-20 21:30N 46°20' W 072°33'0 0.0
2014-Dec-20 20:30N 46°20' W 072°33'0 0.0
2014-Dec-20 19:30N 46°20' W 072°33'0 0.0
2014-Dec-20 18:30N 46°20' W 072°33'0 0.0
2014-Dec-20 17:30N 46°20' W 072°33'0 0.0
2014-Dec-20 16:30N 46°20' W 072°33'0 0.0
2014-Dec-20 15:30N 46°20' W 072°33'0 0.0
2014-Dec-20 14:30N 46°20' W 072°33'0 0.0
2014-Dec-20 13:24N 46°20' W 072°33'0 0.0
2014-Dec-20 12:30N 46°20' W 072°33'0 0.0
2014-Dec-20 11:30N 46°20' W 072°33'0 0.0
2014-Dec-20 10:30N 46°20' W 072°33'0 0.0
2014-Dec-20 09:30N 46°20' W 072°33'0 0.0
2014-Dec-20 08:30N 46°20' W 072°33'0 0.0
2014-Dec-20 07:30N 46°20' W 072°33'0 0.0
2014-Dec-20 06:24N 46°20' W 072°33'0 0.0
2014-Dec-20 05:30N 46°20' W 072°33'0 0.0
2014-Dec-20 04:30N 46°20' W 072°33'0 0.0
2014-Dec-20 03:30N 46°20' W 072°33'0 0.0
2014-Dec-20 02:30N 46°20' W 072°33'0 0.1
2014-Dec-20 01:33N 46°20' W 072°33'6 5.5
2014-Dec-20 00:33N 46°23' W 072°26'1211.8
2014-Dec-19 23:33N 46°31' W 072°13'  
2014-Dec-16 02:32N 43°32' W 070°05'9 0.8
2014-Dec-15 15:27N 43°39' W 070°13'0 0.1
2014-Dec-15 14:30N 43°39' W 070°13'0 0.0
2014-Dec-15 13:18N 43°39' W 070°13'0 0.0
2014-Dec-15 12:30N 43°39' W 070°13'0 0.3
2014-Dec-15 11:34N 43°39' W 070°13'8 8.1
2014-Dec-15 10:33N 43°37' W 070°02'  

Dump ship's entire track history